Time;durP1;ratioP1;P1;durP2;ratioP2;P2;SDS_P1;SDS_P2;PMS_P1;PMS_P2;Temp;Humidity;BMP_temperature;BMP_pressure;BME280_temperature;BME280_humidity;BME280_pressure;Samples;Min_cycle;Max_cycle;Signal;HPM_P1;HPM_P2
2023/06/06 00:00:05;;;;;;;1.10;1.00;;;16.40;79.50;;;;;;5098232;27;20734;-70
2023/06/06 00:02:33;;;;;;;1.97;1.40;;;16.40;80.00;;;;;;5111341;27;20630;-70
2023/06/06 00:05:00;;;;;;;0.83;0.83;;;16.40;79.90;;;;;;5115743;27;20622;-70
2023/06/06 00:07:28;;;;;;;1.03;0.93;;;16.20;79.20;;;;;;5119526;27;21325;-70
2023/06/06 00:09:55;;;;;;;0.77;0.77;;;16.10;79.00;;;;;;5114332;27;20610;-69
2023/06/06 00:12:23;;;;;;;1.70;1.33;;;16.10;80.20;;;;;;5109003;27;20647;-70
2023/06/06 00:14:50;;;;;;;1.10;1.00;;;16.00;80.30;;;;;;5120906;27;20657;-70
2023/06/06 00:17:17;;;;;;;2.10;1.03;;;16.00;80.00;;;;;;5119986;27;20653;-69
2023/06/06 00:19:45;;;;;;;1.43;1.33;;;15.90;80.60;;;;;;5111385;27;20635;-70
2023/06/06 00:22:12;;;;;;;1.73;1.23;;;15.70;80.80;;;;;;5105081;27;20662;-69
2023/06/06 00:24:38;;;;;;;1.73;1.67;;;15.60;82.10;;;;;;5118860;27;20628;-69
2023/06/06 00:27:06;;;;;;;1.47;1.37;;;15.60;84.10;;;;;;5110758;27;20663;-69
2023/06/06 00:29:33;;;;;;;1.40;1.30;;;15.50;84.10;;;;;;5107002;27;20631;-69
2023/06/06 00:31:59;;;;;;;1.03;0.97;;;15.40;84.20;;;;;;5111387;27;21240;-70
2023/06/06 00:34:26;;;;;;;1.63;1.20;;;15.40;84.10;;;;;;5107392;27;20674;-70
2023/06/06 00:36:54;;;;;;;1.70;1.47;;;15.20;84.30;;;;;;5122712;27;20722;-70
2023/06/06 00:39:21;;;;;;;1.43;1.33;;;15.10;84.80;;;;;;5107656;27;20626;-69
2023/06/06 00:41:48;;;;;;;1.30;1.20;;;15.10;85.40;;;;;;5110532;27;20757;-69
2023/06/06 00:44:15;;;;;;;1.33;1.23;;;15.00;86.50;;;;;;5119590;27;20620;-69
2023/06/06 00:46:43;;;;;;;1.83;1.60;;;15.00;87.40;;;;;;5119173;27;20692;-70
2023/06/06 00:49:13;;;;;;;1.70;1.57;;;15.00;87.70;;;;;;5115602;27;20625;-69
2023/06/06 00:51:41;;;;;;;1.30;1.20;;;14.90;88.20;;;;;;5111333;27;20649;-70
2023/06/06 00:54:12;;;;;;;1.33;1.20;;;14.80;88.20;;;;;;5109064;28;20659;-69
2023/06/06 00:56:40;;;;;;;1.20;0.97;;;14.80;88.10;;;;;;5115681;27;20733;-70
2023/06/06 00:59:07;;;;;;;2.10;1.47;;;14.80;89.20;;;;;;5107613;28;20711;-70
2023/06/06 01:01:36;;;;;;;1.50;1.40;;;14.70;89.10;;;;;;5118327;28;20742;-69
2023/06/06 01:04:08;;;;;;;1.60;1.50;;;14.70;88.70;;;;;;5108064;28;20707;-69
2023/06/06 01:06:37;;;;;;;2.20;0.90;;;14.70;89.70;;;;;;5107565;28;20646;-70
2023/06/06 01:09:05;;;;;;;2.50;1.70;;;14.70;89.90;;;;;;5109001;28;20632;-69
2023/06/06 01:11:45;;;;;;;2.27;1.80;;;14.80;87.40;;;;;;5117298;28;21247;-69
2023/06/06 01:14:19;;;;;;;2.43;2.23;;;14.90;85.40;;;;;;5116150;28;21241;-69
2023/06/06 01:16:52;;;;;;;1.53;1.43;;;14.90;84.70;;;;;;5095259;28;20996;-70
2023/06/06 01:19:27;;;;;;;1.80;1.37;;;14.90;84.50;;;;;;5121939;28;21245;-71
2023/06/06 01:21:56;;;;;;;1.50;1.07;;;14.80;84.70;;;;;;5108441;28;20630;-70
2023/06/06 01:24:26;;;;;;;1.60;1.40;;;14.80;86.70;;;;;;5124523;27;21022;-69
2023/06/06 01:26:55;;;;;;;1.60;1.50;;;14.60;86.80;;;;;;5111929;27;20676;-69
2023/06/06 01:29:25;;;;;;;1.70;1.57;;;14.50;87.90;;;;;;5117460;27;21240;-69
2023/06/06 01:32:01;;;;;;;2.53;2.10;;;14.40;88.30;;;;;;5117589;27;20659;-69
2023/06/06 01:34:39;;;;;;;2.20;1.80;;;14.20;88.60;;;;;;5118262;27;20708;-70
2023/06/06 01:37:15;;;;;;;1.60;1.50;;;14.20;89.50;;;;;;5112503;27;21038;-69
2023/06/06 01:39:47;;;;;;;2.10;1.77;;;14.30;89.70;;;;;;5118821;27;21039;-69
2023/06/06 01:42:16;;;;;;;2.73;2.53;;;14.20;89.90;;;;;;5121646;27;20856;-69
2023/06/06 01:44:45;;;;;;;3.33;2.23;;;14.30;89.30;;;;;;5109481;27;20617;-69
2023/06/06 01:47:14;;;;;;;1.63;1.53;;;14.20;89.50;;;;;;5116277;27;20750;-69
2023/06/06 01:49:43;;;;;;;1.57;1.47;;;14.20;90.10;;;;;;5119415;27;20634;-70
2023/06/06 01:52:11;;;;;;;1.87;1.77;;;14.20;88.50;;;;;;5116968;27;20774;-70
2023/06/06 01:54:40;;;;;;;1.80;1.33;;;14.30;88.30;;;;;;5117811;27;20656;-69
2023/06/06 01:57:08;;;;;;;1.67;1.57;;;14.30;87.90;;;;;;5101399;27;20645;-71
2023/06/06 01:59:37;;;;;;;1.90;1.80;;;14.30;87.10;;;;;;5122451;27;20631;-70
2023/06/06 02:02:05;;;;;;;1.50;1.40;;;14.30;88.60;;;;;;5112959;27;20652;-70
2023/06/06 02:04:33;;;;;;;2.13;1.63;;;14.10;90.00;;;;;;5121258;27;20637;-70
2023/06/06 02:07:00;;;;;;;6.33;1.70;;;14.20;90.20;;;;;;5118838;27;20646;-70
2023/06/06 02:09:29;;;;;;;1.70;1.60;;;14.10;90.40;;;;;;5112307;27;20628;-70
2023/06/06 02:11:56;;;;;;;2.63;2.03;;;14.10;90.30;;;;;;5113955;27;20987;-70
2023/06/06 02:14:23;;;;;;;2.30;1.73;;;14.00;90.60;;;;;;5122243;27;20628;-70
2023/06/06 02:16:50;;;;;;;2.40;1.77;;;14.00;89.60;;;;;;5118518;27;20652;-70
2023/06/06 02:19:17;;;;;;;1.97;1.87;;;14.00;88.50;;;;;;5124816;27;20969;-70
2023/06/06 02:21:44;;;;;;;2.60;1.80;;;14.00;89.60;;;;;;5111950;27;20719;-70
2023/06/06 02:24:11;;;;;;;1.60;1.50;;;14.00;89.70;;;;;;5118580;27;20617;-70
2023/06/06 02:26:40;;;;;;;2.80;2.00;;;14.00;89.50;;;;;;5105555;27;20703;-70
2023/06/06 02:29:08;;;;;;;1.77;1.60;;;13.80;90.30;;;;;;5121739;27;20657;-70
2023/06/06 02:31:36;;;;;;;1.57;1.47;;;13.80;90.70;;;;;;5119925;27;21243;-70
2023/06/06 02:34:04;;;;;;;1.10;1.00;;;13.60;91.20;;;;;;5121325;27;20633;-70
2023/06/06 02:36:33;;;;;;;2.10;1.50;;;13.60;91.50;;;;;;5114456;27;20770;-70
2023/06/06 02:39:02;;;;;;;1.70;1.60;;;13.70;91.30;;;;;;5110171;27;20627;-70
2023/06/06 02:41:30;;;;;;;3.93;2.00;;;13.50;91.90;;;;;;5122271;27;20656;-70
2023/06/06 02:43:59;;;;;;;1.97;1.83;;;13.60;90.80;;;;;;5119724;27;20626;-70
2023/06/06 02:46:27;;;;;;;1.97;1.63;;;13.60;91.70;;;;;;5119121;27;20655;-70
2023/06/06 02:48:54;;;;;;;1.83;1.73;;;13.50;92.00;;;;;;5111831;27;20623;-70
2023/06/06 02:51:23;;;;;;;2.50;2.03;;;13.50;92.20;;;;;;5112346;27;20647;-70
2023/06/06 02:53:49;;;;;;;2.37;2.20;;;13.50;91.90;;;;;;5116336;27;20628;-70
2023/06/06 02:56:17;;;;;;;2.00;1.50;;;13.60;91.50;;;;;;5120089;27;20762;-70
2023/06/06 02:58:45;;;;;;;2.57;1.83;;;13.60;91.70;;;;;;5118175;27;21002;-70
2023/06/06 03:01:14;;;;;;;2.00;1.90;;;13.60;91.70;;;;;;5111518;27;20651;-70
2023/06/06 03:03:42;;;;;;;2.37;2.13;;;13.60;91.20;;;;;;5114232;27;20623;-70
2023/06/06 03:06:09;;;;;;;2.37;1.70;;;13.60;90.60;;;;;;5118441;27;20655;-70
2023/06/06 03:08:40;;;;;;;2.30;1.77;;;13.50;90.30;;;;;;5123796;27;20677;-70
2023/06/06 03:11:08;;;;;;;1.77;1.50;;;13.50;90.50;;;;;;5109737;27;20738;-69
2023/06/06 03:13:35;;;;;;;2.30;2.10;;;13.50;90.90;;;;;;5115140;27;20635;-70
2023/06/06 03:16:03;;;;;;;2.00;1.83;;;13.50;91.10;;;;;;5117946;27;20716;-70
2023/06/06 03:18:31;;;;;;;2.43;2.20;;;13.40;91.00;;;;;;5119049;27;21353;-70
2023/06/06 03:20:58;;;;;;;2.43;2.23;;;13.40;91.10;;;;;;5120372;27;20715;-70
2023/06/06 03:23:25;;;;;;;2.30;1.90;;;13.50;91.00;;;;;;5116299;27;20707;-70
2023/06/06 03:25:53;;;;;;;1.90;1.80;;;13.40;91.00;;;;;;5119808;27;20681;-70
2023/06/06 03:28:21;;;;;;;5.30;1.90;;;13.40;91.40;;;;;;5120417;27;20632;-70
2023/06/06 03:30:48;;;;;;;2.03;1.73;;;13.40;91.50;;;;;;5116901;27;20779;-70
2023/06/06 03:33:16;;;;;;;5.13;2.93;;;13.40;91.50;;;;;;5118309;27;20604;-70
2023/06/06 03:35:44;;;;;;;2.40;2.20;;;13.40;91.60;;;;;;5116750;27;20673;-70
2023/06/06 03:38:11;;;;;;;2.77;1.87;;;13.40;91.90;;;;;;5118460;27;20619;-70
2023/06/06 03:40:38;;;;;;;2.27;2.00;;;13.30;92.00;;;;;;5111797;27;21257;-70
2023/06/06 03:43:05;;;;;;;4.10;2.63;;;13.20;92.60;;;;;;5105913;27;21368;-70
2023/06/06 03:45:32;;;;;;;3.07;2.60;;;13.20;93.20;;;;;;5108022;27;20702;-70
2023/06/06 03:47:59;;;;;;;2.67;2.10;;;13.10;93.80;;;;;;5116026;27;20638;-70
2023/06/06 03:50:26;;;;;;;2.57;2.20;;;13.10;94.50;;;;;;5112346;27;21255;-70
2023/06/06 03:52:54;;;;;;;1.60;1.43;;;13.10;94.60;;;;;;5118200;27;20627;-70
2023/06/06 03:55:22;;;;;;;2.60;1.90;;;13.20;94.60;;;;;;5109133;27;20694;-70
2023/06/06 03:57:50;;;;;;;2.00;1.90;;;13.20;94.70;;;;;;5111982;27;20628;-70
2023/06/06 04:00:18;;;;;;;2.00;1.77;;;13.10;95.10;;;;;;5114218;27;21332;-70
2023/06/06 04:02:46;;;;;;;3.10;2.20;;;13.20;94.90;;;;;;5120856;27;20632;-70
2023/06/06 04:05:13;;;;;;;2.63;2.13;;;13.10;95.20;;;;;;5116260;27;21030;-70
2023/06/06 04:07:41;;;;;;;2.00;1.77;;;13.20;95.30;;;;;;5116359;27;20633;-70
2023/06/06 04:10:10;;;;;;;3.93;2.03;;;13.30;95.20;;;;;;5112544;27;20615;-70
2023/06/06 04:12:38;;;;;;;2.33;1.60;;;13.20;95.30;;;;;;5115075;27;20967;-70
2023/06/06 04:15:06;;;;;;;3.53;3.23;;;13.20;95.30;;;;;;5110042;27;21002;-70
2023/06/06 04:17:33;;;;;;;2.20;1.73;;;13.30;95.50;;;;;;5117349;27;21211;-70
2023/06/06 04:20:00;;;;;;;2.67;1.90;;;13.30;95.60;;;;;;5105236;27;20662;-70
2023/06/06 04:22:27;;;;;;;2.30;2.00;;;13.30;95.60;;;;;;5117524;27;20659;-70
2023/06/06 04:24:54;;;;;;;1.80;1.70;;;13.40;95.40;;;;;;5113085;27;20612;-70
2023/06/06 04:27:23;;;;;;;2.70;2.20;;;13.50;95.50;;;;;;5109416;27;20654;-71
2023/06/06 04:29:51;;;;;;;1.40;1.30;;;13.60;95.00;;;;;;5107841;27;20621;-69
2023/06/06 04:32:19;;;;;;;1.70;1.60;;;13.70;94.70;;;;;;5111690;27;20654;-70
2023/06/06 04:34:47;;;;;;;3.33;2.40;;;13.70;94.10;;;;;;5110830;27;20649;-70
2023/06/06 04:37:17;;;;;;;2.07;1.87;;;13.90;93.90;;;;;;5116706;27;20668;-70
2023/06/06 04:39:44;;;;;;;1.60;1.50;;;13.90;93.70;;;;;;5108399;27;20628;-70
2023/06/06 04:42:12;;;;;;;2.70;1.90;;;14.00;93.40;;;;;;5102720;27;21215;-68
2023/06/06 04:44:41;;;;;;;9.43;2.40;;;14.00;92.80;;;;;;5101061;28;20978;-68
2023/06/06 04:47:09;;;;;;;2.33;2.13;;;14.10;92.70;;;;;;5113937;27;21526;-69
2023/06/06 04:49:36;;;;;;;2.53;1.93;;;14.10;92.80;;;;;;5109404;27;21204;-69
2023/06/06 04:52:05;;;;;;;2.50;1.67;;;14.10;93.10;;;;;;5113135;27;21321;-69
2023/06/06 04:54:33;;;;;;;2.93;2.60;;;14.30;93.30;;;;;;5106344;27;20631;-69
2023/06/06 04:57:00;;;;;;;2.90;1.90;;;14.40;93.30;;;;;;5116218;28;21007;-69
2023/06/06 04:59:27;;;;;;;1.93;1.83;;;14.50;93.10;;;;;;5105503;27;20628;-70
2023/06/06 05:01:56;;;;;;;2.20;2.10;;;14.60;93.20;;;;;;5108613;28;20659;-71
2023/06/06 05:04:23;;;;;;;2.53;1.80;;;14.70;92.40;;;;;;5100122;28;20682;-72
2023/06/06 05:06:50;;;;;;;2.83;1.80;;;14.90;91.10;;;;;;5115449;28;20680;-72
2023/06/06 05:09:17;;;;;;;1.87;1.67;;;15.00;90.30;;;;;;5114265;28;20621;-72
2023/06/06 05:11:48;;;;;;;2.40;2.20;;;15.20;90.70;;;;;;5117031;28;20652;-72
2023/06/06 05:14:15;;;;;;;2.77;2.40;;;15.30;89.90;;;;;;5115379;28;21182;-72
2023/06/06 05:16:46;;;;;;;2.40;2.27;;;15.50;90.00;;;;;;5105190;28;20771;-72
2023/06/06 05:19:15;;;;;;;2.27;2.07;;;15.50;87.10;;;;;;5112132;28;20628;-73
2023/06/06 05:21:42;;;;;;;2.93;2.50;;;15.60;86.70;;;;;;5118862;28;20641;-73
2023/06/06 05:24:11;;;;;;;2.37;2.17;;;15.80;86.60;;;;;;5119033;28;20632;-73
2023/06/06 05:26:37;;;;;;;2.40;2.20;;;15.90;85.60;;;;;;5118380;28;21065;-73
2023/06/06 05:29:04;;;;;;;2.63;2.03;;;15.90;85.20;;;;;;5112287;28;20633;-72
2023/06/06 05:31:33;;;;;;;2.10;2.00;;;16.00;84.80;;;;;;5114214;28;20810;-72
2023/06/06 05:34:01;;;;;;;1.83;1.73;;;16.00;83.90;;;;;;5104127;28;20625;-72
2023/06/06 05:36:29;;;;;;;4.73;2.77;;;16.00;84.40;;;;;;5119736;27;21018;-72
2023/06/06 05:38:56;;;;;;;1.80;1.70;;;16.10;84.80;;;;;;5111119;27;20628;-72
2023/06/06 05:41:23;;;;;;;3.30;2.00;;;16.30;84.70;;;;;;5112811;28;21181;-72
2023/06/06 05:43:51;;;;;;;2.50;1.83;;;16.30;84.60;;;;;;5114295;27;20659;-72
2023/06/06 05:46:19;;;;;;;3.07;2.00;;;16.50;83.60;;;;;;5113130;27;21038;-72
2023/06/06 05:48:46;;;;;;;2.20;2.00;;;16.60;82.60;;;;;;5110504;28;21210;-72
2023/06/06 05:51:12;;;;;;;2.63;2.43;;;16.60;82.30;;;;;;5098807;28;20879;-72
2023/06/06 05:53:44;;;;;;;2.80;2.60;;;16.60;83.30;;;;;;5114107;28;20623;-72
2023/06/06 05:56:11;;;;;;;2.10;2.00;;;16.80;83.10;;;;;;5117874;27;20657;-72
2023/06/06 05:58:38;;;;;;;2.27;2.07;;;16.80;80.90;;;;;;5112984;28;20630;-72
2023/06/06 06:01:05;;;;;;;2.40;2.20;;;16.90;80.70;;;;;;5112129;28;20723;-72
2023/06/06 06:03:32;;;;;;;3.13;2.83;;;16.90;81.00;;;;;;5117591;28;20691;-72
2023/06/06 06:06:02;;;;;;;2.40;2.20;;;17.00;81.90;;;;;;5110062;28;20662;-72
2023/06/06 06:08:31;;;;;;;2.60;2.40;;;17.00;81.20;;;;;;5116951;27;20624;-72
2023/06/06 06:10:59;;;;;;;2.80;2.00;;;16.90;80.40;;;;;;5111540;27;20656;-72
2023/06/06 06:13:26;;;;;;;2.17;1.97;;;17.00;81.50;;;;;;5118746;27;20638;-71
2023/06/06 06:15:53;;;;;;;3.40;2.33;;;17.00;81.20;;;;;;5104560;27;20668;-71
2023/06/06 06:18:19;;;;;;;3.20;2.30;;;17.30;81.50;;;;;;5117645;27;20676;-71
2023/06/06 06:20:46;;;;;;;3.10;2.33;;;17.30;79.70;;;;;;5110928;27;20646;-71
2023/06/06 06:23:13;;;;;;;2.10;1.97;;;17.40;79.50;;;;;;5120444;27;21002;-71
2023/06/06 06:25:40;;;;;;;3.47;2.30;;;17.50;79.70;;;;;;5104850;27;20659;-71
2023/06/06 06:28:19;;;;;;;2.07;1.87;;;17.50;78.80;;;;;;5115415;27;21014;-71
2023/06/06 06:30:46;;;;;;;2.50;2.30;;;17.60;78.90;;;;;;5112417;27;20657;-71
2023/06/06 06:33:13;;;;;;;1.80;1.70;;;17.60;78.10;;;;;;5118755;27;20624;-71
2023/06/06 06:35:42;;;;;;;2.27;2.07;;;17.60;78.70;;;;;;5113001;27;20654;-71
2023/06/06 06:38:08;;;;;;;1.63;1.50;;;17.70;78.20;;;;;;5116717;27;20628;-71
2023/06/06 06:40:35;;;;;;;1.73;1.60;;;17.80;79.20;;;;;;5111486;27;20658;-71
2023/06/06 06:43:02;;;;;;;1.80;1.70;;;17.80;78.80;;;;;;5106852;27;21054;-71
2023/06/06 06:45:30;;;;;;;2.87;2.10;;;17.90;77.50;;;;;;5114663;27;20753;-71
2023/06/06 06:47:59;;;;;;;1.53;1.43;;;17.80;77.50;;;;;;5109719;27;20633;-71
2023/06/06 06:50:25;;;;;;;3.07;2.77;;;18.00;77.60;;;;;;5108393;27;20648;-71
2023/06/06 06:52:53;;;;;;;2.50;2.30;;;18.10;77.00;;;;;;5104730;27;20727;-71
2023/06/06 06:55:23;;;;;;;1.87;1.77;;;18.10;77.00;;;;;;5110125;27;20739;-71
2023/06/06 06:57:51;;;;;;;2.90;2.60;;;18.00;75.70;;;;;;5111765;27;20715;-71
2023/06/06 07:00:21;;;;;;;3.07;2.47;;;18.20;76.20;;;;;;5113500;27;20623;-71
2023/06/06 07:02:53;;;;;;;3.80;2.47;;;18.30;76.40;;;;;;5105118;27;20621;-71
2023/06/06 07:05:21;;;;;;;2.33;2.17;;;18.50;75.00;;;;;;5114437;27;20988;-72
2023/06/06 07:07:50;;;;;;;2.60;2.33;;;18.50;74.50;;;;;;5116813;27;20632;-71
2023/06/06 07:10:18;;;;;;;2.13;1.97;;;18.50;75.40;;;;;;5115421;27;20634;-72
2023/06/06 07:12:48;;;;;;;2.70;2.30;;;18.50;73.20;;;;;;5111602;27;20624;-71
2023/06/06 07:15:15;;;;;;;2.20;2.00;;;18.60;73.80;;;;;;5117310;27;20634;-72
2023/06/06 07:17:46;;;;;;;2.67;2.30;;;18.70;74.60;;;;;;5114251;27;20663;-72
2023/06/06 07:20:14;;;;;;;1.97;1.77;;;18.60;73.60;;;;;;5115028;27;20703;-72
2023/06/06 07:22:41;;;;;;;2.50;2.30;;;18.80;72.00;;;;;;5117551;27;20722;-72
2023/06/06 07:25:09;;;;;;;3.17;2.10;;;18.90;72.40;;;;;;5110956;27;21211;-71
2023/06/06 07:27:38;;;;;;;2.50;2.30;;;19.00;69.90;;;;;;5108914;27;20631;-71
2023/06/06 07:30:12;;;;;;;1.87;1.73;;;19.10;68.50;;;;;;5119709;27;20642;-71
2023/06/06 07:32:41;;;;;;;2.07;1.97;;;19.20;68.10;;;;;;5113976;27;20719;-72
2023/06/06 07:35:08;;;;;;;2.50;2.40;;;19.30;67.10;;;;;;5124914;27;21163;-71
2023/06/06 07:37:37;;;;;;;2.70;2.33;;;19.50;67.50;;;;;;5116209;27;20660;-72
2023/06/06 07:40:05;;;;;;;2.33;2.13;;;19.50;67.50;;;;;;5106000;28;20693;-71
2023/06/06 07:42:32;;;;;;;1.90;1.77;;;19.60;67.50;;;;;;5109521;27;20643;-71
2023/06/06 07:44:59;;;;;;;2.00;1.87;;;19.60;67.80;;;;;;5115755;27;20619;-71
2023/06/06 07:47:26;;;;;;;1.90;1.80;;;19.70;65.60;;;;;;5111691;27;21249;-71
2023/06/06 07:49:53;;;;;;;3.87;2.57;;;19.80;65.50;;;;;;5106622;27;20720;-71
2023/06/06 07:52:20;;;;;;;2.17;1.97;;;19.90;66.10;;;;;;5116504;27;20647;-71
2023/06/06 07:54:48;;;;;;;3.00;1.87;;;20.00;64.70;;;;;;5110865;27;20735;-71
2023/06/06 07:57:16;;;;;;;2.50;1.80;;;20.10;65.70;;;;;;5116197;27;21249;-71
2023/06/06 07:59:43;;;;;;;2.30;2.10;;;20.10;65.90;;;;;;5115777;27;20635;-72
2023/06/06 08:02:13;;;;;;;2.20;2.00;;;20.30;64.20;;;;;;5118697;27;20651;-71
2023/06/06 08:04:42;;;;;;;2.30;2.10;;;20.40;63.20;;;;;;5117306;27;20644;-71
2023/06/06 08:07:09;;;;;;;2.27;1.70;;;20.60;62.20;;;;;;5116599;27;21260;-71
2023/06/06 08:09:36;;;;;;;3.00;1.50;;;20.60;61.10;;;;;;5111332;27;21219;-71
2023/06/06 08:12:06;;;;;;;2.43;2.23;;;20.70;62.00;;;;;;5115977;27;20656;-71
2023/06/06 08:14:33;;;;;;;1.70;1.57;;;20.90;61.30;;;;;;5119676;27;20616;-71
2023/06/06 08:17:00;;;;;;;2.80;2.60;;;21.00;60.60;;;;;;5117017;27;20782;-72
2023/06/06 08:19:27;;;;;;;2.67;2.37;;;21.20;59.60;;;;;;5117502;27;20627;-72
2023/06/06 08:21:54;;;;;;;2.87;2.27;;;21.10;59.50;;;;;;5118544;27;21250;-72
2023/06/06 08:24:21;;;;;;;2.30;2.10;;;21.10;59.10;;;;;;5120133;27;21179;-72
2023/06/06 08:26:48;;;;;;;2.30;2.10;;;21.20;59.50;;;;;;5110712;27;20651;-71
2023/06/06 08:29:16;;;;;;;2.30;2.10;;;21.40;59.10;;;;;;5119520;27;20629;-71
2023/06/06 08:31:43;;;;;;;3.37;1.97;;;21.50;58.80;;;;;;5104158;27;20672;-72
2023/06/06 08:34:10;;;;;;;2.00;1.90;;;21.50;59.30;;;;;;5115613;27;21061;-72
2023/06/06 08:36:38;;;;;;;1.80;1.70;;;21.60;59.10;;;;;;5104839;27;20672;-72
2023/06/06 08:39:06;;;;;;;1.97;1.77;;;21.70;57.50;;;;;;5107807;27;20620;-71
2023/06/06 08:41:33;;;;;;;3.10;2.10;;;21.80;57.80;;;;;;5107948;27;20653;-72
2023/06/06 08:44:01;;;;;;;3.20;2.17;;;21.80;57.60;;;;;;5110383;27;20643;-72
2023/06/06 08:46:32;;;;;;;2.17;1.83;;;21.90;59.30;;;;;;5119179;27;21099;-71
2023/06/06 08:49:02;;;;;;;2.03;1.93;;;22.00;58.80;;;;;;5105571;27;20983;-71
2023/06/06 08:51:30;;;;;;;2.17;2.00;;;22.00;57.70;;;;;;5100420;28;20655;-72
2023/06/06 08:53:58;;;;;;;3.83;2.00;;;22.00;57.10;;;;;;5112784;27;20671;-72
2023/06/06 08:56:26;;;;;;;3.13;2.53;;;22.10;57.20;;;;;;5117848;27;20662;-72
2023/06/06 08:58:53;;;;;;;2.10;2.00;;;22.20;56.60;;;;;;5109995;28;20616;-71
2023/06/06 09:01:21;;;;;;;3.77;2.83;;;22.30;56.30;;;;;;5108901;28;20683;-72
2023/06/06 09:03:53;;;;;;;3.53;2.03;;;22.40;55.20;;;;;;5112510;28;20628;-72
2023/06/06 09:06:21;;;;;;;3.03;2.20;;;22.30;55.80;;;;;;5112708;28;20644;-72
2023/06/06 09:08:49;;;;;;;2.97;2.70;;;22.40;56.00;;;;;;5117912;28;20629;-71
2023/06/06 09:11:18;;;;;;;2.83;2.53;;;22.50;56.00;;;;;;5108793;28;20969;-71
2023/06/06 09:13:46;;;;;;;3.13;2.83;;;22.60;56.50;;;;;;5109184;28;20627;-71
2023/06/06 09:16:14;;;;;;;2.20;2.10;;;22.60;56.00;;;;;;5110004;28;20652;-72
2023/06/06 09:18:41;;;;;;;2.40;2.20;;;22.60;55.90;;;;;;5116938;27;21359;-72
2023/06/06 09:21:09;;;;;;;3.10;2.90;;;22.80;55.30;;;;;;5095743;28;21955;-71
2023/06/06 09:23:46;;;;;;;2.80;2.40;;;22.80;55.60;;;;;;5105541;28;21205;-71
2023/06/06 09:26:20;;;;;;;2.63;2.43;;;22.80;56.20;;;;;;5099661;28;20663;-72
2023/06/06 09:28:47;;;;;;;2.50;2.30;;;22.90;56.30;;;;;;5099103;28;21031;-72
2023/06/06 09:31:40;;;;;;;2.40;2.20;;;23.00;56.10;;;;;;5096955;28;20784;-72
2023/06/06 09:34:11;;;;;;;2.77;2.33;;;22.90;56.80;;;;;;5099066;28;20629;-72
2023/06/06 09:36:42;;;;;;;2.50;2.07;;;22.70;56.60;;;;;;5101729;28;20673;-71
2023/06/06 09:39:11;;;;;;;3.13;2.83;;;22.80;57.40;;;;;;5107588;28;20626;-71
2023/06/06 09:41:42;;;;;;;2.53;2.33;;;22.80;57.20;;;;;;5097972;28;20649;-72
2023/06/06 09:44:21;;;;;;;2.57;2.37;;;22.90;57.30;;;;;;5105216;27;21191;-70
2023/06/06 09:46:48;;;;;;;2.40;2.20;;;22.90;56.80;;;;;;5101525;27;20649;-70
2023/06/06 09:49:20;;;;;;;2.67;2.47;;;23.20;56.00;;;;;;5104973;27;20695;-70
2023/06/06 09:51:48;;;;;;;2.70;2.50;;;23.40;55.60;;;;;;5099867;28;20662;-70
2023/06/06 09:54:20;;;;;;;3.17;2.97;;;23.30;55.90;;;;;;5104487;27;20646;-70
2023/06/06 09:56:49;;;;;;;2.50;2.30;;;23.30;56.20;;;;;;5119328;27;21238;-70
2023/06/06 09:59:17;;;;;;;4.30;3.03;;;23.50;56.50;;;;;;5113920;27;21360;-70
2023/06/06 10:01:45;;;;;;;2.37;2.17;;;23.50;56.00;;;;;;5107248;27;20653;-70
2023/06/06 10:04:12;;;;;;;3.20;2.60;;;23.40;55.00;;;;;;5108417;27;20850;-70
2023/06/06 10:06:43;;;;;;;2.37;2.17;;;23.50;55.40;;;;;;5114799;27;20648;-70
2023/06/06 10:09:12;;;;;;;2.93;2.63;;;23.40;55.60;;;;;;5106216;27;20623;-70
2023/06/06 10:11:39;;;;;;;3.37;3.13;;;23.80;55.20;;;;;;5108553;27;20645;-70
2023/06/06 10:14:06;;;;;;;2.10;2.00;;;24.00;55.10;;;;;;5110227;27;21005;-70
2023/06/06 10:16:35;;;;;;;2.77;2.57;;;24.00;52.70;;;;;;5113421;27;20666;-72
2023/06/06 10:19:03;;;;;;;2.17;1.97;;;24.30;52.70;;;;;;5121878;27;21159;-72
2023/06/06 10:21:32;;;;;;;3.53;3.00;;;24.40;52.90;;;;;;5112940;27;21026;-72
2023/06/06 10:23:58;;;;;;;3.20;2.90;;;24.40;53.60;;;;;;5121121;27;20654;-72
2023/06/06 10:26:31;;;;;;;3.40;2.20;;;24.60;52.70;;;;;;5116084;27;20651;-72
2023/06/06 10:29:03;;;;;;;2.37;2.20;;;24.60;52.40;;;;;;5122147;27;20617;-72
2023/06/06 10:31:37;;;;;;;2.80;2.60;;;24.70;51.90;;;;;;5121170;27;20670;-72
2023/06/06 10:34:08;;;;;;;2.60;2.40;;;24.80;51.40;;;;;;5116531;27;20985;-72
2023/06/06 10:36:44;;;;;;;3.50;3.20;;;24.90;51.80;;;;;;5118370;27;20747;-71
2023/06/06 10:39:19;;;;;;;2.47;2.27;;;25.00;50.90;;;;;;5109728;27;20665;-71
2023/06/06 10:41:55;;;;;;;3.33;3.13;;;25.20;51.60;;;;;;5113252;27;21016;-71
2023/06/06 10:44:25;;;;;;;2.70;2.50;;;25.40;49.70;;;;;;5120426;27;20745;-72
2023/06/06 10:46:52;;;;;;;3.80;3.20;;;25.40;49.80;;;;;;5120826;27;20654;-72
2023/06/06 10:49:20;;;;;;;3.03;2.83;;;25.50;50.20;;;;;;5106307;27;20612;-72
2023/06/06 10:51:48;;;;;;;2.60;2.40;;;25.50;48.90;;;;;;5118164;27;20686;-72
2023/06/06 10:54:16;;;;;;;2.73;2.53;;;25.60;48.70;;;;;;5118680;27;20627;-72
2023/06/06 10:56:47;;;;;;;2.77;2.57;;;25.60;49.40;;;;;;5105544;27;20645;-72
2023/06/06 10:59:16;;;;;;;2.70;2.50;;;25.60;49.00;;;;;;5102144;27;20674;-72
2023/06/06 11:01:44;;;;;;;3.00;2.80;;;25.70;50.20;;;;;;5115221;27;21274;-72
2023/06/06 11:04:21;;;;;;;2.37;2.17;;;25.80;50.70;;;;;;5109090;27;20628;-72
2023/06/06 11:06:49;;;;;;;2.77;2.57;;;25.70;50.00;;;;;;5106426;27;21293;-72
2023/06/06 11:09:22;;;;;;;2.70;2.47;;;25.90;49.90;;;;;;5116846;27;20656;-71
2023/06/06 11:11:49;;;;;;;2.93;2.73;;;26.10;50.00;;;;;;5118562;27;20656;-71
2023/06/06 11:14:22;;;;;;;4.40;2.60;;;26.50;49.90;;;;;;5113103;27;21124;-71
2023/06/06 11:17:02;;;;;;;2.93;2.70;;;26.60;49.50;;;;;;5112284;27;20991;-72
2023/06/06 11:19:38;;;;;;;3.70;3.10;;;26.50;48.30;;;;;;5117553;27;20637;-71
2023/06/06 11:22:06;;;;;;;3.57;3.37;;;26.70;49.40;;;;;;5121647;27;20655;-71
2023/06/06 11:24:36;;;;;;;2.90;2.70;;;26.90;48.90;;;;;;5119989;27;20625;-71
2023/06/06 11:27:06;;;;;;;3.00;2.80;;;27.30;47.80;;;;;;5105940;27;21637;-70
2023/06/06 11:29:34;;;;;;;2.88;2.67;;;27.50;46.10;;;;;;5104439;27;20744;-70
2023/06/06 11:32:02;;;;;;;2.67;2.53;;;27.80;46.00;;;;;;5110967;27;20234;-71
2023/06/06 11:34:33;;;;;;;2.70;2.50;;;27.80;47.00;;;;;;5109637;27;20620;-71
2023/06/06 11:37:00;;;;;;;4.20;3.80;;;27.60;47.40;;;;;;5107900;27;20647;-70
2023/06/06 11:39:28;;;;;;;3.57;3.37;;;27.30;46.80;;;;;;5116153;27;20688;-70
2023/06/06 11:41:56;;;;;;;3.50;3.20;;;27.30;45.30;;;;;;5111254;27;20839;-70
2023/06/06 11:44:32;;;;;;;2.60;2.40;;;26.90;46.00;;;;;;5120541;27;20197;-71
2023/06/06 11:47:02;;;;;;;3.67;3.03;;;26.10;47.20;;;;;;5115071;27;20650;-70
2023/06/06 11:49:30;;;;;;;2.93;2.73;;;25.10;45.50;;;;;;5108119;27;20631;-70
2023/06/06 11:51:58;;;;;;;3.57;3.27;;;24.50;48.50;;;;;;5110928;27;21246;-70
2023/06/06 11:54:27;;;;;;;2.60;2.40;;;24.60;48.80;;;;;;5105372;27;21186;-70
2023/06/06 11:56:57;;;;;;;3.73;2.87;;;24.40;48.90;;;;;;5107840;27;21050;-70
2023/06/06 11:59:24;;;;;;;2.90;2.70;;;25.00;48.90;;;;;;5114193;27;20661;-70
2023/06/06 12:01:52;;;;;;;2.77;2.57;;;25.30;48.80;;;;;;5102707;27;20648;-71
2023/06/06 12:04:21;;;;;;;3.30;2.97;;;25.80;46.80;;;;;;5118955;27;20634;-70
2023/06/06 12:06:49;;;;;;;4.03;2.70;;;27.20;47.90;;;;;;5110713;27;20647;-71
2023/06/06 12:09:17;;;;;;;2.87;2.67;;;28.70;43.70;;;;;;5111522;27;20671;-71
2023/06/06 12:11:51;;;;;;;3.30;2.50;;;29.50;43.90;;;;;;5119487;27;20647;-71
2023/06/06 12:14:18;;;;;;;2.90;2.70;;;30.00;42.80;;;;;;5107164;27;20996;-71
2023/06/06 12:16:45;;;;;;;3.20;3.00;;;29.60;43.90;;;;;;5110491;27;20683;-71
2023/06/06 12:19:13;;;;;;;2.70;2.50;;;30.00;42.60;;;;;;5107403;27;21299;-71
2023/06/06 12:21:51;;;;;;;2.13;2.00;;;30.70;40.10;;;;;;5103807;27;20649;-71
2023/06/06 12:24:20;;;;;;;3.50;1.90;;;31.10;38.50;;;;;;5111411;27;20630;-71
2023/06/06 12:26:53;;;;;;;2.63;2.43;;;31.70;39.00;;;;;;5107373;27;20702;-71
2023/06/06 12:29:20;;;;;;;2.80;2.60;;;32.20;37.50;;;;;;5106511;27;20641;-71
2023/06/06 12:31:50;;;;;;;2.90;2.70;;;33.00;37.40;;;;;;5100698;27;20657;-68
2023/06/06 12:34:17;;;;;;;2.70;2.50;;;33.60;37.10;;;;;;5115461;27;20696;-68
2023/06/06 12:36:44;;;;;;;2.67;2.47;;;33.70;34.70;;;;;;5118097;27;20638;-68
2023/06/06 12:39:14;;;;;;;2.90;2.70;;;33.80;34.90;;;;;;5102190;28;20768;-69
2023/06/06 12:41:42;;;;;;;2.80;2.60;;;34.20;36.60;;;;;;5099428;27;20647;-70
2023/06/06 12:44:11;;;;;;;2.50;2.40;;;34.00;36.20;;;;;;5099993;27;20685;-70
2023/06/06 12:46:41;;;;;;;2.60;2.40;;;34.20;37.60;;;;;;5098891;28;20667;-69
2023/06/06 12:49:09;;;;;;;3.20;2.90;;;33.60;37.50;;;;;;5096966;28;20658;-69
2023/06/06 12:51:39;;;;;;;2.80;2.60;;;34.20;36.50;;;;;;5102965;28;21024;-69
2023/06/06 12:54:06;;;;;;;3.13;2.93;;;34.10;34.90;;;;;;5094010;28;20632;-69